Time;durP1;ratioP1;P1;durP2;ratioP2;P2;SDS_P1;SDS_P2;PMS_P1;PMS_P2;Temp;Humidity;BMP_temperature;BMP_pressure;BME280_temperature;BME280_humidity;BME280_pressure;Samples;Min_cycle;Max_cycle;Signal;HPM_P1;HPM_P2
2023/04/05 00:01:32;;;;;;;8.35;5.20;;;3.10;99.90;;;;;;5038310;28;20075;-54
2023/04/05 00:03:59;;;;;;;7.50;4.40;;;3.10;99.90;;;;;;5016557;28;20540;-54
2023/04/05 00:06:29;;;;;;;8.48;4.75;;;3.10;99.90;;;;;;4999266;28;20372;-52
2023/04/05 00:08:56;;;;;;;9.35;4.88;;;3.00;99.90;;;;;;5017540;28;20288;-51
2023/04/05 00:11:22;;;;;;;8.85;4.82;;;3.00;99.90;;;;;;5016402;28;20052;-52
2023/04/05 00:13:48;;;;;;;10.57;4.57;;;2.90;99.90;;;;;;5016946;28;20120;-53
2023/04/05 00:16:15;;;;;;;12.88;4.80;;;2.90;99.90;;;;;;5025395;28;20044;-54
2023/04/05 00:18:48;;;;;;;12.18;4.80;;;2.90;99.90;;;;;;5019668;28;20037;-51
2023/04/05 00:21:15;;;;;;;9.85;5.25;;;2.90;99.90;;;;;;4999351;28;20562;-53
2023/04/05 00:23:43;;;;;;;7.55;4.00;;;2.90;99.90;;;;;;4996632;28;20330;-53
2023/04/05 00:26:10;;;;;;;11.45;4.72;;;2.80;99.90;;;;;;5032265;28;20393;-52
2023/04/05 00:28:36;;;;;;;9.40;4.63;;;2.80;99.90;;;;;;5017666;28;20526;-53
2023/04/05 00:31:03;;;;;;;8.52;5.68;;;2.80;99.90;;;;;;5017378;28;20049;-54
2023/04/05 00:33:29;;;;;;;11.75;5.15;;;2.80;99.90;;;;;;5016655;28;20103;-54
2023/04/05 00:35:55;;;;;;;9.05;5.15;;;2.70;99.90;;;;;;5037941;28;20042;-55
2023/04/05 00:38:20;;;;;;;9.90;5.10;;;2.70;99.90;;;;;;5022770;28;20045;-50
2023/04/05 00:40:46;;;;;;;10.38;5.13;;;2.70;99.90;;;;;;5012008;28;20041;-50
2023/04/05 00:43:12;;;;;;;9.43;4.00;;;2.60;99.90;;;;;;5020769;28;20063;-53
2023/04/05 00:45:37;;;;;;;9.73;5.20;;;2.60;99.90;;;;;;5039140;28;20033;-52
2023/04/05 00:48:04;;;;;;;9.77;4.50;;;2.60;99.90;;;;;;4983792;28;20297;-51
2023/04/05 00:50:30;;;;;;;8.48;4.70;;;2.50;99.90;;;;;;5017360;28;20057;-51
2023/04/05 00:52:57;;;;;;;11.18;5.07;;;2.50;99.90;;;;;;5044190;28;20040;-54
2023/04/05 00:55:24;;;;;;;8.90;4.22;;;2.50;99.90;;;;;;5015205;28;20140;-56
2023/04/05 00:57:50;;;;;;;10.15;4.80;;;2.50;99.90;;;;;;5014651;28;20099;-53
2023/04/05 01:00:16;;;;;;;10.18;4.65;;;2.50;99.90;;;;;;5017185;28;20484;-50
2023/04/05 01:02:50;;;;;;;9.20;4.57;;;2.50;99.90;;;;;;5013625;28;20034;-51
2023/04/05 01:05:42;;;;;;;8.38;4.68;;;2.50;99.90;;;;;;5009645;28;20491;-50
2023/04/05 01:08:41;;;;;;;10.02;4.68;;;2.60;99.90;;;;;;5023981;28;20107;-50
2023/04/05 01:11:09;;;;;;;9.27;4.68;;;2.50;99.90;;;;;;4992147;28;20167;-51
2023/04/05 01:13:35;;;;;;;11.15;5.10;;;2.40;99.90;;;;;;5021177;28;20804;-54
2023/04/05 01:16:01;;;;;;;9.38;4.55;;;2.40;99.90;;;;;;4985564;28;20041;-55
2023/04/05 01:18:29;;;;;;;10.82;4.70;;;2.40;99.90;;;;;;5022332;28;20044;-53
2023/04/05 01:21:06;;;;;;;10.45;4.35;;;2.30;99.90;;;;;;5027317;28;20535;-54
2023/04/05 01:23:45;;;;;;;12.20;4.25;;;2.30;99.90;;;;;;5014862;28;20037;-53
2023/04/05 01:26:10;;;;;;;8.85;4.72;;;2.30;99.90;;;;;;5011669;28;20425;-50
2023/04/05 01:28:58;;;;;;;9.38;4.70;;;2.20;99.90;;;;;;5012193;28;20060;-54
2023/04/05 01:31:27;;;;;;;10.75;4.78;;;2.20;99.90;;;;;;4994448;28;20049;-54
2023/04/05 01:34:16;;;;;;;9.05;4.22;;;2.20;99.90;;;;;;5016019;28;20060;-51
2023/04/05 01:36:52;;;;;;;10.25;4.60;;;2.10;99.90;;;;;;5025595;28;20052;-55
2023/04/05 01:39:20;;;;;;;6.75;4.03;;;2.10;99.90;;;;;;5014202;28;20058;-56
2023/04/05 01:41:46;;;;;;;8.63;4.60;;;2.10;99.90;;;;;;5016296;28;20500;-54
2023/04/05 01:44:11;;;;;;;11.48;4.30;;;2.00;99.90;;;;;;5011720;28;20041;-54
2023/04/05 01:46:37;;;;;;;9.45;4.63;;;2.00;99.90;;;;;;5021552;28;20036;-54
2023/04/05 01:49:03;;;;;;;9.60;4.90;;;2.00;99.90;;;;;;5011146;28;20068;-55
2023/04/05 01:51:29;;;;;;;8.35;4.80;;;2.00;99.90;;;;;;5015453;28;20049;-57
2023/04/05 01:53:55;;;;;;;9.93;4.72;;;1.90;99.90;;;;;;4998652;28;20171;-57
2023/04/05 01:56:20;;;;;;;9.38;4.60;;;2.00;99.90;;;;;;5018364;28;20048;-57
2023/04/05 01:58:46;;;;;;;9.65;4.68;;;1.90;99.90;;;;;;5010543;28;20452;-57
2023/04/05 02:01:12;;;;;;;8.70;4.30;;;1.90;99.90;;;;;;5012554;28;20068;-53
2023/04/05 02:03:37;;;;;;;10.40;4.43;;;1.90;99.90;;;;;;5015082;28;20064;-54
2023/04/05 02:06:04;;;;;;;9.02;4.80;;;1.80;99.90;;;;;;5033288;28;20136;-54
2023/04/05 02:08:30;;;;;;;10.05;4.80;;;1.80;99.90;;;;;;5009722;28;20045;-51
2023/04/05 02:10:56;;;;;;;8.57;4.72;;;1.80;99.90;;;;;;5020378;28;20114;-54
2023/04/05 02:13:22;;;;;;;9.38;4.80;;;1.70;99.90;;;;;;5011603;28;20429;-50
2023/04/05 02:15:49;;;;;;;10.80;5.50;;;1.70;99.90;;;;;;5012416;28;20088;-53
2023/04/05 02:18:15;;;;;;;9.95;5.35;;;1.70;99.90;;;;;;5011128;28;20395;-51
2023/04/05 02:20:41;;;;;;;9.27;4.75;;;1.70;99.90;;;;;;5015567;28;20054;-53
2023/04/05 02:23:07;;;;;;;9.93;5.07;;;1.70;99.90;;;;;;5020754;28;20041;-53
2023/04/05 02:25:33;;;;;;;9.70;5.22;;;1.70;99.90;;;;;;4996239;28;20053;-54
2023/04/05 02:27:58;;;;;;;13.15;5.72;;;1.70;99.90;;;;;;5014330;28;20068;-54
2023/04/05 02:30:27;;;;;;;10.10;4.97;;;1.70;99.90;;;;;;5010598;28;20038;-51
2023/04/05 02:32:54;;;;;;;8.25;5.13;;;1.60;99.90;;;;;;5008693;28;20045;-53
2023/04/05 02:35:20;;;;;;;11.70;5.63;;;1.60;99.90;;;;;;5018408;28;20077;-53
2023/04/05 02:37:46;;;;;;;9.60;5.70;;;1.70;99.90;;;;;;5020945;28;20330;-51
2023/04/05 02:40:14;;;;;;;11.75;5.18;;;1.70;99.90;;;;;;5014617;28;20484;-52
2023/04/05 02:42:40;;;;;;;9.88;5.00;;;1.60;99.90;;;;;;5016824;28;20099;-54
2023/04/05 02:45:07;;;;;;;9.50;4.88;;;1.60;99.90;;;;;;5010979;28;20045;-51
2023/04/05 02:47:33;;;;;;;11.68;5.57;;;1.60;99.90;;;;;;5012795;28;20116;-52
2023/04/05 02:49:59;;;;;;;10.10;5.38;;;1.50;99.90;;;;;;5018045;28;20040;-52
2023/04/05 02:52:25;;;;;;;11.63;5.25;;;1.50;99.90;;;;;;5000614;28;20468;-53
2023/04/05 02:54:51;;;;;;;9.02;5.05;;;1.50;99.90;;;;;;4993132;28;20219;-51
2023/04/05 02:57:17;;;;;;;8.57;5.38;;;1.50;99.90;;;;;;5007187;28;20128;-51
2023/04/05 02:59:44;;;;;;;9.20;4.78;;;1.40;99.90;;;;;;4996233;28;20041;-52
2023/04/05 03:02:09;;;;;;;10.88;5.45;;;1.40;99.90;;;;;;5011372;28;20045;-51
2023/04/05 03:04:35;;;;;;;13.95;5.78;;;1.40;99.90;;;;;;5003628;28;20032;-51
2023/04/05 03:07:02;;;;;;;11.07;5.53;;;1.30;99.90;;;;;;5014367;28;20488;-51
2023/04/05 03:09:32;;;;;;;12.35;5.82;;;1.30;99.90;;;;;;5018336;28;20041;-53
2023/04/05 03:12:02;;;;;;;12.32;6.45;;;1.30;99.90;;;;;;4992944;28;20073;-53
2023/04/05 03:14:33;;;;;;;10.77;5.90;;;1.20;99.90;;;;;;5017612;28;20045;-51
2023/04/05 03:17:00;;;;;;;11.48;5.82;;;1.30;99.90;;;;;;5009211;28;20472;-53
2023/04/05 03:19:25;;;;;;;10.77;5.55;;;1.20;99.90;;;;;;5025325;28;20055;-50
2023/04/05 03:21:52;;;;;;;9.48;5.82;;;1.20;99.90;;;;;;4990467;28;20485;-53
2023/04/05 03:24:17;;;;;;;10.90;5.85;;;1.10;99.90;;;;;;4998322;28;20045;-55
2023/04/05 03:26:45;;;;;;;10.88;5.75;;;1.10;99.90;;;;;;4984343;28;20037;-55
2023/04/05 03:29:11;;;;;;;13.35;6.95;;;1.10;99.90;;;;;;5017882;28;20392;-54
2023/04/05 03:31:37;;;;;;;10.13;5.75;;;1.10;99.90;;;;;;5023029;28;20045;-53
2023/04/05 03:34:02;;;;;;;9.05;5.82;;;1.10;99.90;;;;;;4993158;28;20359;-54
2023/04/05 03:36:29;;;;;;;11.15;6.03;;;1.10;99.90;;;;;;5028258;28;20045;-51
2023/04/05 03:38:55;;;;;;;9.70;6.22;;;1.10;99.90;;;;;;5010178;28;20037;-52
2023/04/05 03:41:21;;;;;;;10.32;5.72;;;1.10;99.90;;;;;;5011012;28;20124;-51
2023/04/05 03:43:50;;;;;;;10.38;5.75;;;1.10;99.90;;;;;;5013896;28;20125;-54
2023/04/05 03:46:16;;;;;;;9.82;6.25;;;1.10;99.90;;;;;;5025764;28;20044;-56
2023/04/05 03:48:41;;;;;;;13.05;6.00;;;1.00;99.90;;;;;;5011222;28;20048;-53
2023/04/05 03:51:07;;;;;;;16.17;8.00;;;1.10;99.90;;;;;;5024672;28;20057;-55
2023/04/05 03:53:33;;;;;;;10.05;6.80;;;1.10;99.90;;;;;;5014886;28;20500;-56
2023/04/05 03:55:59;;;;;;;10.38;6.32;;;1.00;99.90;;;;;;5014556;28;20053;-56
2023/04/05 03:58:26;;;;;;;13.70;6.55;;;0.90;99.90;;;;;;5013317;28;20261;-54
2023/04/05 04:00:52;;;;;;;11.00;6.20;;;0.90;99.90;;;;;;5012405;28;20452;-57
2023/04/05 04:03:18;;;;;;;11.38;6.72;;;0.90;99.90;;;;;;4996262;28;20037;-53
2023/04/05 04:05:44;;;;;;;12.50;7.38;;;0.90;99.90;;;;;;5018760;28;20507;-54
2023/04/05 04:08:09;;;;;;;10.38;5.70;;;1.00;99.90;;;;;;4998682;28;20052;-52
2023/04/05 04:10:35;;;;;;;10.23;5.72;;;0.90;99.90;;;;;;5007229;28;20077;-51
2023/04/05 04:13:01;;;;;;;13.88;6.82;;;0.90;99.90;;;;;;4995792;28;20052;-52
2023/04/05 04:15:27;;;;;;;12.50;6.43;;;0.90;99.90;;;;;;4992382;28;20041;-53
2023/04/05 04:17:52;;;;;;;10.95;6.97;;;0.90;99.90;;;;;;5007672;28;20099;-53
2023/04/05 04:20:18;;;;;;;10.10;6.20;;;0.90;99.90;;;;;;5034953;28;20045;-51
2023/04/05 04:22:44;;;;;;;11.05;7.07;;;0.80;99.90;;;;;;5029222;28;20118;-51
2023/04/05 04:25:11;;;;;;;11.90;7.05;;;0.80;99.90;;;;;;5015997;28;20058;-56
2023/04/05 04:27:39;;;;;;;10.52;7.22;;;0.80;99.90;;;;;;5018428;28;20123;-52
2023/04/05 04:30:10;;;;;;;11.57;6.72;;;0.80;99.90;;;;;;5017440;28;20551;-51
2023/04/05 04:32:52;;;;;;;14.85;7.72;;;0.80;99.90;;;;;;5014015;28;20045;-51
2023/04/05 04:35:26;;;;;;;10.98;6.57;;;0.80;99.90;;;;;;5018161;28;20111;-53
2023/04/05 04:38:03;;;;;;;9.90;6.95;;;0.70;99.90;;;;;;4998340;28;20064;-53
2023/04/05 04:40:39;;;;;;;14.25;7.03;;;0.70;99.90;;;;;;5022090;28;20042;-54
2023/04/05 04:43:05;;;;;;;16.23;7.38;;;0.70;99.90;;;;;;5008837;28;20033;-51
2023/04/05 04:45:36;;;;;;;13.52;7.55;;;0.70;99.90;;;;;;5002374;28;20052;-50
2023/04/05 04:48:03;;;;;;;16.23;8.18;;;0.70;99.90;;;;;;5016390;28;20053;-54
2023/04/05 04:50:30;;;;;;;16.60;8.85;;;0.60;99.90;;;;;;5012316;28;20076;-56
2023/04/05 04:52:58;;;;;;;15.45;8.73;;;0.60;99.90;;;;;;5019106;28;20500;-51
2023/04/05 04:55:25;;;;;;;19.60;8.63;;;0.70;99.90;;;;;;5001086;28;20049;-52
2023/04/05 04:57:54;;;;;;;18.50;8.68;;;0.60;99.90;;;;;;5021676;28;20530;-51
2023/04/05 05:00:22;;;;;;;17.35;9.77;;;0.60;99.90;;;;;;5015412;28;20497;-51
2023/04/05 05:02:51;;;;;;;14.13;8.52;;;0.60;99.90;;;;;;5024071;28;20029;-53
2023/04/05 05:05:17;;;;;;;12.77;7.82;;;0.50;99.90;;;;;;5017523;28;20140;-52
2023/04/05 05:07:42;;;;;;;15.85;7.65;;;0.60;99.90;;;;;;4996381;28;20056;-51
2023/04/05 05:10:15;;;;;;;16.75;8.45;;;0.60;99.90;;;;;;4995316;28;20515;-51
2023/04/05 05:12:41;;;;;;;16.77;8.57;;;0.60;99.90;;;;;;5019535;28;20051;-51
2023/04/05 05:15:07;;;;;;;16.25;8.90;;;0.50;99.90;;;;;;5019316;28;20186;-52
2023/04/05 05:17:34;;;;;;;11.52;7.47;;;0.50;99.90;;;;;;5028712;28;20042;-51
2023/04/05 05:20:00;;;;;;;14.45;8.73;;;0.50;99.90;;;;;;4996774;28;20192;-51
2023/04/05 05:22:27;;;;;;;15.60;8.80;;;0.60;99.90;;;;;;5022465;28;20102;-54
2023/04/05 05:24:53;;;;;;;17.92;9.55;;;0.70;99.90;;;;;;5015551;28;20037;-53
2023/04/05 05:27:18;;;;;;;16.10;9.07;;;0.70;99.90;;;;;;5017990;28;20073;-51
2023/04/05 05:29:44;;;;;;;16.75;9.25;;;0.80;99.90;;;;;;5009083;28;20041;-54
2023/04/05 05:32:14;;;;;;;17.38;9.73;;;0.80;99.90;;;;;;5004127;28;20087;-53
2023/04/05 05:34:41;;;;;;;19.08;10.38;;;0.80;99.90;;;;;;5005340;28;20044;-54
2023/04/05 05:37:08;;;;;;;19.52;10.15;;;0.90;99.90;;;;;;5024431;28;20152;-53
2023/04/05 05:39:37;;;;;;;16.65;9.50;;;0.90;99.90;;;;;;4998561;28;20073;-51
2023/04/05 05:42:03;;;;;;;20.20;9.95;;;0.90;99.90;;;;;;5012246;28;20171;-53
2023/04/05 05:44:30;;;;;;;21.95;10.13;;;0.90;99.90;;;;;;5007583;28;20116;-54
2023/04/05 05:46:56;;;;;;;15.73;9.50;;;1.00;99.90;;;;;;5010844;28;20047;-53
2023/04/05 05:49:22;;;;;;;17.88;9.82;;;1.10;99.90;;;;;;5024230;28;20037;-51
2023/04/05 05:51:49;;;;;;;18.83;10.35;;;1.10;99.90;;;;;;5003369;28;20084;-52
2023/04/05 05:54:15;;;;;;;22.15;12.15;;;1.20;99.90;;;;;;4999154;28;20041;-51
2023/04/05 05:56:41;;;;;;;19.92;12.10;;;1.20;99.90;;;;;;5010473;28;20038;-52
2023/04/05 05:59:07;;;;;;;20.10;11.35;;;1.30;99.90;;;;;;5024605;28;20412;-54
2023/04/05 06:01:37;;;;;;;18.92;10.02;;;1.40;99.90;;;;;;5029200;28;20106;-53
2023/04/05 06:04:03;;;;;;;18.13;10.90;;;1.50;99.90;;;;;;5007517;28;20045;-51
2023/04/05 06:06:29;;;;;;;19.27;10.60;;;1.50;99.90;;;;;;5008570;28;20069;-53
2023/04/05 06:08:55;;;;;;;20.40;12.05;;;1.60;99.90;;;;;;5008727;28;20496;-53
2023/04/05 06:11:22;;;;;;;17.35;11.10;;;1.70;99.90;;;;;;5005556;28;20511;-55
2023/04/05 06:13:51;;;;;;;18.38;11.32;;;1.70;99.90;;;;;;5011317;28;20048;-53
2023/04/05 06:16:17;;;;;;;21.45;11.38;;;1.80;99.90;;;;;;5005339;28;20397;-53
2023/04/05 06:18:43;;;;;;;18.95;10.98;;;1.80;99.90;;;;;;5013578;28;20455;-53
2023/04/05 06:21:09;;;;;;;23.92;12.52;;;1.90;99.90;;;;;;4989796;28;20041;-54
2023/04/05 06:23:34;;;;;;;22.08;12.02;;;2.00;99.90;;;;;;5002780;28;20050;-53
2023/04/05 06:26:00;;;;;;;17.73;11.35;;;2.10;99.90;;;;;;5011597;28;20132;-53
2023/04/05 06:28:26;;;;;;;22.10;12.70;;;2.10;99.90;;;;;;5022821;28;20044;-52
2023/04/05 06:30:53;;;;;;;18.20;11.43;;;2.20;99.90;;;;;;5010373;28;20199;-53
2023/04/05 06:33:18;;;;;;;25.17;12.65;;;2.30;99.90;;;;;;5003808;28;20056;-54
2023/04/05 06:35:45;;;;;;;19.95;11.75;;;2.40;99.90;;;;;;5022787;28;20042;-51
2023/04/05 06:38:11;;;;;;;21.02;12.48;;;2.40;99.90;;;;;;5004663;28;20045;-53
2023/04/05 06:40:37;;;;;;;21.70;11.57;;;2.50;99.90;;;;;;5021859;28;20040;-54
2023/04/05 06:43:03;;;;;;;17.48;11.05;;;2.60;99.90;;;;;;5004055;28;20068;-53
2023/04/05 06:45:28;;;;;;;17.25;11.82;;;2.60;99.90;;;;;;5009619;28;20520;-52
2023/04/05 06:47:54;;;;;;;17.27;11.55;;;2.70;99.90;;;;;;5009350;28;20038;-53
2023/04/05 06:50:20;;;;;;;20.45;12.25;;;2.70;99.90;;;;;;5009682;28;20417;-53
2023/04/05 06:52:45;;;;;;;22.17;12.10;;;2.80;99.90;;;;;;5008231;28;20041;-55
2023/04/05 06:55:11;;;;;;;21.55;12.27;;;2.90;99.90;;;;;;5008498;28;20052;-56
2023/04/05 06:57:37;;;;;;;20.75;13.20;;;2.90;99.90;;;;;;5020465;28;20052;-53
2023/04/05 07:00:09;;;;;;;19.00;11.57;;;3.00;99.90;;;;;;5009673;28;20041;-50
2023/04/05 07:02:34;;;;;;;19.30;12.68;;;3.10;99.90;;;;;;5004199;28;20044;-51
2023/04/05 07:05:04;;;;;;;20.10;12.32;;;3.20;99.90;;;;;;5031587;28;20029;-50
2023/04/05 07:07:37;;;;;;;17.58;10.98;;;3.30;99.90;;;;;;5007982;28;20085;-57
2023/04/05 07:10:03;;;;;;;16.48;12.07;;;3.40;99.90;;;;;;5004264;28;20038;-51
2023/04/05 07:12:29;;;;;;;19.92;12.93;;;3.60;99.90;;;;;;5008096;28;20040;-52
2023/04/05 07:14:55;;;;;;;18.70;12.52;;;3.90;99.90;;;;;;5009766;28;20037;-51
2023/04/05 07:17:20;;;;;;;21.23;12.30;;;4.10;99.90;;;;;;5007491;28;20041;-54
2023/04/05 07:19:46;;;;;;;20.60;12.52;;;4.30;99.90;;;;;;5011362;28;20065;-56
2023/04/05 07:22:12;;;;;;;18.80;11.48;;;4.30;99.90;;;;;;5007019;28;20057;-56
2023/04/05 07:24:38;;;;;;;17.50;11.38;;;4.40;99.90;;;;;;5022666;28;20036;-54
2023/04/05 07:27:03;;;;;;;23.00;13.40;;;4.50;99.90;;;;;;5003382;28;20049;-51
2023/04/05 07:29:29;;;;;;;16.20;11.63;;;4.60;99.90;;;;;;5005369;28;20507;-54
2023/04/05 07:31:55;;;;;;;15.88;11.00;;;4.80;99.90;;;;;;5008279;28;20037;-54
2023/04/05 07:34:20;;;;;;;16.58;11.82;;;5.00;99.90;;;;;;5007692;28;20404;-54
2023/04/05 07:36:46;;;;;;;19.90;12.23;;;5.10;99.90;;;;;;4994994;28;20039;-58
2023/04/05 07:39:12;;;;;;;21.70;12.93;;;5.30;99.90;;;;;;5008126;28;20044;-54
2023/04/05 07:41:38;;;;;;;18.77;11.60;;;5.40;99.90;;;;;;4994660;28;20041;-54
2023/04/05 07:44:03;;;;;;;17.17;11.88;;;5.40;99.90;;;;;;5002559;28;20053;-54
2023/04/05 07:46:29;;;;;;;15.70;10.93;;;5.50;99.90;;;;;;4988070;28;20063;-54
2023/04/05 07:48:55;;;;;;;15.32;11.10;;;5.70;99.90;;;;;;5010275;28;20056;-54
2023/04/05 07:51:21;;;;;;;19.27;11.85;;;5.80;99.90;;;;;;4991750;28;20057;-56
2023/04/05 07:53:47;;;;;;;17.33;11.55;;;6.00;99.90;;;;;;5008389;28;20068;-54
2023/04/05 07:56:14;;;;;;;16.58;11.30;;;6.00;99.90;;;;;;5019640;28;20117;-54
2023/04/05 07:58:40;;;;;;;15.63;11.18;;;6.00;99.90;;;;;;5022438;28;20026;-51
2023/04/05 08:01:08;;;;;;;17.33;10.25;;;6.10;99.90;;;;;;5018487;28;20148;-56
2023/04/05 08:03:35;;;;;;;16.30;10.70;;;6.20;99.90;;;;;;5001236;28;20045;-51
2023/04/05 08:06:11;;;;;;;19.02;10.73;;;6.30;99.90;;;;;;4975874;28;20072;-58
2023/04/05 08:08:37;;;;;;;16.92;10.73;;;6.40;99.90;;;;;;4999665;28;20041;-55
2023/04/05 08:11:03;;;;;;;16.33;11.65;;;6.40;99.90;;;;;;4987732;28;20592;-53
2023/04/05 08:13:29;;;;;;;19.98;11.70;;;6.40;99.90;;;;;;5006940;28;20128;-54
2023/04/05 08:15:55;;;;;;;15.65;10.88;;;6.60;99.90;;;;;;5006340;28;20044;-51
2023/04/05 08:18:21;;;;;;;16.80;11.38;;;6.80;99.90;;;;;;5007686;28;20045;-54
2023/04/05 08:20:54;;;;;;;17.50;10.95;;;6.90;99.90;;;;;;4990300;28;20056;-58
2023/04/05 08:23:20;;;;;;;15.80;10.75;;;7.00;99.90;;;;;;5023337;28;20391;-53
2023/04/05 08:25:46;;;;;;;15.07;11.23;;;7.10;99.90;;;;;;4988363;28;20049;-56
2023/04/05 08:28:12;;;;;;;16.30;11.10;;;7.20;99.90;;;;;;5011232;28;20049;-53
2023/04/05 08:30:40;;;;;;;16.13;10.32;;;7.20;99.90;;;;;;5005951;28;20136;-53
2023/04/05 08:33:06;;;;;;;17.08;11.02;;;7.30;99.90;;;;;;4995933;28;20120;-56
2023/04/05 08:35:32;;;;;;;13.88;10.27;;;7.40;99.90;;;;;;5003728;28;20050;-54
2023/04/05 08:37:57;;;;;;;16.48;9.75;;;7.40;99.90;;;;;;5008128;28;20042;-53
2023/04/05 08:40:32;;;;;;;12.75;8.73;;;7.40;99.90;;;;;;5007924;28;20042;-51
2023/04/05 08:43:07;;;;;;;12.27;8.95;;;7.60;99.90;;;;;;5004829;28;20539;-53
2023/04/05 08:45:34;;;;;;;14.35;9.48;;;7.60;99.90;;;;;;5028288;28;20133;-58
2023/04/05 08:48:00;;;;;;;16.67;9.68;;;7.70;99.90;;;;;;5024047;28;20504;-55
2023/04/05 08:50:26;;;;;;;12.60;8.48;;;7.80;99.90;;;;;;4989270;28;20050;-56
2023/04/05 08:52:51;;;;;;;15.05;9.30;;;7.90;99.90;;;;;;5009935;28;20160;-53
2023/04/05 08:55:17;;;;;;;12.95;8.85;;;7.90;99.90;;;;;;5011440;28;20209;-58
2023/04/05 08:57:50;;;;;;;11.90;8.32;;;8.10;99.90;;;;;;5007498;28;20076;-57
2023/04/05 09:00:16;;;;;;;13.95;8.38;;;8.20;99.90;;;;;;4998536;28;20136;-55
2023/04/05 09:02:46;;;;;;;12.10;7.93;;;8.30;99.90;;;;;;4986129;28;20041;-53
2023/04/05 09:05:14;;;;;;;10.48;8.10;;;8.40;99.90;;;;;;5013733;28;20377;-54
2023/04/05 09:07:41;;;;;;;12.63;8.93;;;8.50;99.70;;;;;;4992514;28;20049;-55
2023/04/05 09:10:08;;;;;;;11.80;7.95;;;8.60;99.30;;;;;;5009328;28;20037;-56
2023/04/05 09:12:35;;;;;;;13.50;8.85;;;8.70;99.30;;;;;;4989748;28;20157;-58
2023/04/05 09:15:01;;;;;;;10.32;7.05;;;8.80;99.50;;;;;;5002724;28;20485;-53
2023/04/05 09:17:28;;;;;;;12.07;7.93;;;8.90;99.10;;;;;;5010331;28;20051;-53
2023/04/05 09:19:53;;;;;;;11.65;7.72;;;9.10;98.50;;;;;;5008921;28;20393;-53
2023/04/05 09:22:22;;;;;;;13.80;7.18;;;9.20;98.70;;;;;;5006631;28;20038;-57
2023/04/05 09:24:47;;;;;;;13.02;7.45;;;9.40;97.80;;;;;;5006345;28;20418;-54
2023/04/05 09:27:15;;;;;;;14.25;7.70;;;9.40;97.40;;;;;;4996658;28;20087;-58
2023/04/05 09:29:44;;;;;;;9.77;6.93;;;9.40;96.40;;;;;;5021632;28;20111;-55
2023/04/05 09:32:12;;;;;;;11.48;7.07;;;9.40;96.30;;;;;;5006753;28;20526;-54
2023/04/05 09:34:39;;;;;;;10.63;7.03;;;9.50;96.00;;;;;;5014471;28;20500;-53
2023/04/05 09:37:19;;;;;;;12.07;6.35;;;9.60;95.90;;;;;;5007839;28;20041;-54
2023/04/05 09:39:46;;;;;;;22.48;6.80;;;9.60;95.00;;;;;;5005921;28;20053;-55
2023/04/05 09:42:17;;;;;;;11.98;6.68;;;9.70;95.20;;;;;;5024666;28;20519;-53
2023/04/05 09:45:06;;;;;;;10.50;7.55;;;9.90;94.00;;;;;;5028075;28;20500;-56
2023/04/05 09:47:35;;;;;;;8.45;6.35;;;9.90;94.40;;;;;;5002489;28;20503;-55
2023/04/05 09:50:16;;;;;;;11.68;6.22;;;9.90;94.60;;;;;;4985653;28;20038;-55
2023/04/05 09:52:42;;;;;;;9.63;6.32;;;10.10;93.50;;;;;;4991191;28;20034;-54
2023/04/05 09:55:09;;;;;;;13.07;7.72;;;10.20;93.50;;;;;;5011991;28;20037;-56
2023/04/05 09:57:39;;;;;;;11.18;6.70;;;10.30;93.80;;;;;;5001178;28;20052;-58
2023/04/05 10:00:15;;;;;;;9.98;5.20;;;10.60;94.00;;;;;;4992167;28;20094;-58
2023/04/05 10:02:42;;;;;;;9.43;4.90;;;10.70;92.90;;;;;;5009289;28;20052;-58
2023/04/05 10:05:12;;;;;;;11.88;6.72;;;10.70;91.90;;;;;;5009995;28;20036;-58
2023/04/05 10:07:47;;;;;;;10.50;6.47;;;10.80;91.90;;;;;;5015597;28;20417;-58
2023/04/05 10:10:14;;;;;;;10.57;6.38;;;10.80;91.50;;;;;;5005303;28;20488;-57
2023/04/05 10:12:41;;;;;;;10.23;6.82;;;10.80;91.80;;;;;;5004767;28;20487;-58
2023/04/05 10:15:12;;;;;;;9.95;7.03;;;10.80;90.90;;;;;;5026263;28;20053;-54
2023/04/05 10:17:48;;;;;;;8.48;6.53;;;10.80;90.60;;;;;;5002729;28;20049;-56
2023/04/05 10:20:19;;;;;;;10.02;6.60;;;11.00;91.60;;;;;;5004473;28;20042;-58
2023/04/05 10:22:50;;;;;;;12.73;6.70;;;11.10;91.40;;;;;;5005947;28;20068;-56
2023/04/05 10:25:43;;;;;;;8.85;6.45;;;10.80;89.60;;;;;;5016657;28;20054;-55
2023/04/05 10:28:10;;;;;;;9.50;7.00;;;10.60;90.00;;;;;;4991691;28;20042;-56
2023/04/05 10:30:43;;;;;;;9.30;6.35;;;10.60;90.80;;;;;;5001461;28;20042;-58
2023/04/05 10:33:30;;;;;;;9.57;6.95;;;10.60;90.70;;;;;;5017987;28;20036;-58
2023/04/05 10:36:07;;;;;;;10.50;6.22;;;10.80;91.20;;;;;;5006215;28;20495;-58
2023/04/05 10:38:57;;;;;;;10.48;6.28;;;11.00;91.40;;;;;;5002585;28;20496;-56
2023/04/05 10:41:26;;;;;;;15.85;7.88;;;11.20;90.50;;;;;;5021963;28;20045;-56
2023/04/05 10:43:55;;;;;;;9.32;6.50;;;11.20;89.70;;;;;;5012575;28;20410;-53
2023/04/05 10:46:21;;;;;;;9.18;6.65;;;11.10;89.80;;;;;;5018791;28;20034;-57
2023/04/05 10:49:03;;;;;;;10.13;6.32;;;11.20;90.00;;;;;;5025164;28;20045;-55
2023/04/05 10:51:30;;;;;;;11.18;6.15;;;11.40;89.20;;;;;;5010080;28;20041;-55
2023/04/05 10:53:56;;;;;;;9.75;6.22;;;11.50;88.90;;;;;;5022153;28;20052;-56
2023/04/05 10:56:23;;;;;;;9.02;6.10;;;11.60;88.80;;;;;;5008916;28;20120;-53
2023/04/05 10:58:51;;;;;;;10.80;6.55;;;11.70;87.20;;;;;;5014463;28;20048;-55
2023/04/05 11:01:18;;;;;;;9.23;5.57;;;11.70;88.30;;;;;;5006209;28;20065;-53
2023/04/05 11:03:48;;;;;;;10.38;5.55;;;11.60;83.10;;;;;;4992471;28;20481;-53
2023/04/05 11:06:24;;;;;;;8.45;5.80;;;11.60;85.70;;;;;;5007951;28;20167;-58
2023/04/05 11:08:54;;;;;;;9.68;6.35;;;11.70;82.80;;;;;;4991948;28;20666;-58
2023/04/05 11:11:22;;;;;;;10.20;5.18;;;11.80;84.10;;;;;;5005497;28;21498;-59
2023/04/05 11:14:15;;;;;;;8.15;5.55;;;11.90;83.30;;;;;;5003571;28;20718;-55
2023/04/05 11:16:44;;;;;;;9.90;5.55;;;11.90;81.40;;;;;;5007570;28;20523;-54
2023/04/05 11:19:10;;;;;;;9.60;5.95;;;12.00;82.30;;;;;;5018449;28;20540;-56
2023/04/05 11:21:36;;;;;;;7.47;5.18;;;12.10;82.40;;;;;;5021188;28;20049;-54
2023/04/05 11:24:03;;;;;;;10.52;6.03;;;12.20;83.10;;;;;;5006288;28;20125;-53
2023/04/05 11:26:33;;;;;;;8.45;5.80;;;12.30;81.20;;;;;;5010217;28;20047;-57
2023/04/05 11:28:58;;;;;;;9.05;5.28;;;12.30;81.80;;;;;;4986521;28;20521;-58
2023/04/05 11:31:25;;;;;;;9.93;5.80;;;12.50;82.20;;;;;;5026063;28;20072;-56
2023/04/05 11:34:10;;;;;;;8.27;5.88;;;12.60;81.20;;;;;;5015503;28;20067;-54
2023/04/05 11:36:44;;;;;;;;;;;12.70;81.00;;;;;;5010766;28;20048;-58
2023/04/05 11:39:22;;;;;;;9.13;5.50;;;12.70;76.50;;;;;;5005732;28;19917;-53
2023/04/05 11:41:57;;;;;;;11.68;6.32;;;12.80;79.70;;;;;;5007643;28;20068;-57
2023/04/05 11:44:23;;;;;;;9.93;6.53;;;12.90;78.00;;;;;;5004846;28;20052;-58
2023/04/05 11:46:50;;;;;;;8.32;5.72;;;13.00;79.50;;;;;;5022430;28;20052;-57
2023/04/05 11:49:16;;;;;;;9.10;5.63;;;13.00;78.00;;;;;;5021576;28;20067;-57
2023/04/05 11:51:42;;;;;;;9.65;6.00;;;13.00;78.40;;;;;;4994691;28;20443;-58
2023/04/05 11:54:08;;;;;;;8.77;6.40;;;13.10;80.00;;;;;;5006858;28;20053;-58
2023/04/05 11:56:34;;;;;;;8.32;6.05;;;13.20;79.70;;;;;;5008426;28;20041;-57
2023/04/05 11:59:06;;;;;;;7.53;5.57;;;13.10;76.90;;;;;;4994361;28;20336;-57
2023/04/05 12:01:33;;;;;;;9.00;5.72;;;12.90;79.10;;;;;;4993822;28;20072;-56
2023/04/05 12:03:59;;;;;;;8.10;5.60;;;13.20;80.20;;;;;;5015590;28;20056;-57
2023/04/05 12:06:25;;;;;;;8.65;6.28;;;13.40;78.80;;;;;;5007361;28;20050;-58
2023/04/05 12:08:52;;;;;;;10.32;5.70;;;13.60;78.40;;;;;;5003798;28;20439;-54
2023/04/05 12:11:32;;;;;;;9.77;6.85;;;13.60;76.60;;;;;;5023393;28;20131;-54
2023/04/05 12:14:01;;;;;;;9.32;6.47;;;13.90;77.10;;;;;;5018914;28;20515;-56
2023/04/05 12:16:28;;;;;;;9.48;6.43;;;13.80;73.90;;;;;;5014018;28;20053;-56
2023/04/05 12:18:58;;;;;;;8.35;5.82;;;13.90;76.50;;;;;;5005523;28;20239;-53
2023/04/05 12:21:26;;;;;;;9.30;6.22;;;14.00;76.80;;;;;;5013750;28;20111;-58
2023/04/05 12:23:52;;;;;;;9.40;5.68;;;13.90;75.30;;;;;;5006838;28;20046;-58
2023/04/05 12:26:19;;;;;;;9.73;5.88;;;14.00;76.80;;;;;;5015632;28;20044;-58
2023/04/05 12:29:04;;;;;;;9.00;6.57;;;14.30;75.20;;;;;;5023322;28;20037;-58
2023/04/05 12:31:36;;;;;;;8.05;5.65;;;14.40;74.00;;;;;;5014287;28;20037;-58
2023/04/05 12:34:02;;;;;;;7.97;6.28;;;14.40;74.50;;;;;;5011070;28;20049;-58
2023/04/05 12:36:28;;;;;;;6.85;5.22;;;14.40;72.70;;;;;;5008963;28;20090;-58
2023/04/05 12:38:54;;;;;;;9.65;5.45;;;14.10;72.20;;;;;;5007990;28;20115;-58
2023/04/05 12:41:30;;;;;;;8.43;6.28;;;14.10;74.00;;;;;;5011509;28;20493;-56
2023/04/05 12:44:00;;;;;;;9.63;6.00;;;14.00;72.10;;;;;;4993560;28;20029;-55
2023/04/05 12:46:47;;;;;;;8.07;5.45;;;14.20;74.20;;;;;;4995920;28;20041;-56
2023/04/05 12:49:17;;;;;;;7.47;5.53;;;14.50;71.00;;;;;;5013640;28;20135;-57
2023/04/05 12:51:47;;;;;;;7.32;5.65;;;14.70;70.50;;;;;;5015025;28;20046;-57